CheckWX is a tool to help pilots better visualize weather data.  It is not intended as a substitute for an official pre-flight weather briefing.

02:43:02 UTC

KQVF METAR
Manda Bay
Manda Bay, Kenya
Current

47 mins ago

KQVF 190156Z AUTO 00000KT 9999 FEW020 SCT028 24/22 A2996 RMK AO2 SLP148 WND DATA ESTMD T02440216
Observed
Sep-19 @ 01:56 UTC
Visibility
10,000+ meters
Flight Rules
VFR
Cloud Levels
  • Few at 2,000' AGL
  • Scattered at 2,800' AGL
Temperature
24°C / 75°F
Dewpoint
22°C / 72°F
Humidity
89%
Altimeter
29.96" Hg
Pressure
1014.52 hPa
Previous

2 hours ago

KQVF 190056Z AUTO 00000KT 9999 FEW018 25/21 A2995 RMK AO2 SLP144 WND DATA ESTMD T02460214
Observed
Sep-19 @ 00:56 UTC
Visibility
10,000+ meters
Flight Rules
VFR
Cloud Levels
  • Few at 1,800' AGL
Temperature
25°C / 77°F
Dewpoint
21°C / 70°F
Humidity
79%
Altimeter
29.95" Hg
Pressure
1014.22 hPa
Previous

4 hours ago

KQVF 182256Z AUTO VRB05KT 9999 FEW021 25/21 A2996 RMK AO2 SLP148 WND DATA ESTMD T02490207 403020232
Observed
Sep-18 @ 22:56 UTC
Wind
  • Variable at 5 KTS
Visibility
10,000+ meters
Flight Rules
VFR
Cloud Levels
  • Few at 2,100' AGL
Temperature
25°C / 77°F
Dewpoint
21°C / 70°F
Humidity
79%
Altimeter
29.96" Hg
Pressure
1014.52 hPa